Meteo Giornale » Osservazioni meteo Stati Uniti (USA) » Hamilton Butler Co
ore: 11:53 - Osservazioni Meteo Hamilton Butler Co
Lat. 39° 21' N Lon. 84° 31' W Alt. 193 metri s.l.m.
31 °C
Sereno
Temp. 24 Ore
20 °C
33 °C
Nord
0 Km/h
Dew point 23 °C
Umidità 62 %
Visibilità 10 Km
Il sole sorge alle ore 07:06
Il sole tramonta alle ore 20:09
| Data e Ora | Cielo e Fenomeni | T °C | DP °C | Um. % | Pres. hPa | Vis. km | Vento km/h | |
|---|---|---|---|---|---|---|---|---|
| Oggi h: 11:53 | Sereno | 31 | 23 | 62 | 1019 | 10 | N 0 | |
| Oggi h: 10:53 | Sereno | 29 | 23 | 70 | 1019 | 10 | N 0 | |
| Oggi h: 09:53 | Sereno | 28 | 22 | 69 | 1019 | 10 | N 5.5 | |
| Oggi h: 08:53 | Sereno | 26 | 23 | 83 | 1019 | 14 | N 0 | |
| Oggi h: 07:53 | Sereno | 21 | 21 | 100 | 1019 | 11 | N 0 | |
| Oggi h: 07:40 | Foschia | 20 | 20 | 100 | 1019 | 6 | N 0 | |
| Oggi h: 07:30 | Foschia | 21 | 20 | 94 | 1019 | 3 | N 0 | |
| Oggi h: 07:27 | Foschia | 20 | 20 | 100 | 1019 | 2 | N 0 | |
| Oggi h: 07:20 | Foschia | 20 | 20 | 100 | 1019 | 5 | N 0 | |
| Oggi h: 07:14 | Foschia | 20 | 19 | 93 | 1019 | 8 | N 0 | |
| Oggi h: 07:02 | Foschia | 21 | 20 | 94 | 1018 | 3 | N 0 | |
| Oggi h: 06:53 | Foschia | 21 | 20 | 94 | 1018 | 2 | N 0 | |
| Oggi h: 06:44 | Foschia | 21 | 20 | 94 | 1018 | 2 | N 0 | |
| Oggi h: 06:35 | Foschia | 21 | 20 | 94 | 1018 | 6 | N 0 | |
| Oggi h: 06:25 | Foschia | 21 | 20 | 94 | 1018 | 2 | N 0 | |
| Oggi h: 05:53 | Foschia | 21 | 20 | 94 | 1018 | 6 | N 0 | |
| Oggi h: 05:35 | Foschia | 21 | 21 | 100 | 1018 | 2 | N 0 | |
| Oggi h: 05:13 | Foschia | 21 | 20 | 94 | 1018 | 8 | N 0 | |
| Oggi h: 04:53 | Foschia | 21 | 21 | 100 | 1018 | 2 | N 0 | |
| Oggi h: 04:51 | Foschia | 21 | 21 | 100 | 1018 | 2 | N 0 | |
| Oggi h: 04:44 | Foschia | 21 | 21 | 100 | 1018 | 5 | N 0 | |
| Oggi h: 04:34 | Foschia | 21 | 21 | 100 | 1018 | 2 | N 0 | |
| Oggi h: 03:53 | Foschia | 22 | 21 | 94 | 1018 | 8 | N 0 | |
| Oggi h: 02:53 | Sereno | 22 | 22 | 100 | 1017 | 14 | N 0 | |
| Oggi h: 01:53 | Foschia | 22 | 22 | 100 | 1017 | 8 | N 0 | |
| Oggi h: 00:53 | Foschia | 22 | 22 | 100 | 1018 | 8 | N 0 | |
| Ieri h: 23:53 | Sereno | 23 | 22 | 94 | 1018 | 11 | N 0 | |
| Ieri h: 22:53 | Sereno | 23 | 22 | 94 | 1018 | 14 | N 0 | |
| Ieri h: 21:53 | Sereno | 24 | 23 | 94 | 1018 | 10 | N 0 | |
| Ieri h: 20:53 | Sereno | 25 | 23 | 88 | 1018 | 14 | N 0 | |
| Ieri h: 19:53 | Sereno | 27 | 23 | 78 | 1017 | 10 | N 0 | |
| Ieri h: 18:53 | Sereno | 31 | 22 | 58 | 1017 | 10 | N 0 | |
| Ieri h: 17:53 | Sereno | 32 | 22 | 55 | 1017 | 10 | N 0 | |
| Ieri h: 16:53 | Sereno | 33 | 21 | 49 | 1018 | 10 | N 7.4 | |
| Ieri h: 15:53 | Sereno | 33 | 22 | 52 | 1018 | 10 | N 0 | |
| Ieri h: 14:53 | Nuvoloso | 33 | 21 | 49 | 1019 | 10 | O/NO 13 | |
| Ieri h: 13:53 | Nuvoloso | 33 | 23 | 55 | 1019 | 10 | N 5.5 | |
| Ieri h: 12:53 | Sereno | 32 | 24 | 62 | 1020 | 10 | N 0 | |



